createdAt,value
2016-11-25T00:00:11.204Z,96.64
2016-11-25T00:01:19.895Z,96.54
2016-11-25T00:02:28.587Z,96.83
2016-11-25T00:03:37.278Z,97.3
2016-11-25T00:04:45.972Z,96.92
2016-11-25T00:05:54.660Z,97.49
2016-11-25T00:07:03.349Z,97.2
2016-11-25T00:08:12.067Z,96.64
2016-11-25T00:09:20.757Z,96.16
2016-11-25T00:10:29.446Z,95.78
2016-11-25T00:11:38.139Z,95.78
2016-11-25T00:12:46.829Z,96.26
2016-11-25T00:13:55.535Z,96.49
2016-11-25T00:15:04.225Z,96.49
2016-11-25T00:16:12.912Z,96.49
2016-11-25T00:17:21.602Z,97.25
2016-11-25T00:18:30.607Z,97.53
2016-11-25T00:19:39.302Z,97.44
2016-11-25T00:20:47.990Z,97.96
2016-11-25T00:21:56.681Z,98.05
2016-11-25T00:23:05.371Z,98.33
2016-11-25T00:24:14.060Z,97.67
2016-11-25T00:25:22.755Z,97.2
2016-11-25T00:26:31.446Z,97.01
2016-11-25T00:27:40.134Z,97.67
2016-11-25T00:28:48.827Z,97.77
2016-11-25T00:29:57.524Z,97.58
2016-11-25T00:31:06.219Z,97.39
2016-11-25T00:32:14.920Z,97.2
2016-11-25T00:33:23.615Z,97.49
2016-11-25T00:34:32.302Z,96.83
2016-11-25T00:35:40.991Z,96.83
2016-11-25T00:36:49.675Z,97.2
2016-11-25T00:37:58.366Z,96.45
2016-11-25T00:39:07.057Z,96.64
2016-11-25T00:40:15.750Z,96.92
2016-11-25T00:41:24.437Z,96.73
2016-11-25T00:42:33.129Z,96.35
2016-11-25T00:43:41.820Z,96.16
2016-11-25T00:44:50.526Z,96.35
2016-11-25T00:45:59.212Z,96.26
2016-11-25T00:47:07.903Z,95.97
2016-11-25T00:48:16.593Z,96.73
2016-11-25T00:49:25.281Z,97.2
2016-11-25T00:50:33.965Z,96.83
2016-11-25T00:51:42.658Z,96.73
2016-11-25T00:52:51.356Z,96.64
2016-11-25T00:54:00.077Z,96.83
2016-11-25T00:55:08.762Z,97.11
2016-11-25T00:56:17.449Z,96.92
2016-11-25T00:57:26.144Z,96.83
2016-11-25T00:58:34.838Z,96.92
2016-11-25T00:59:43.531Z,96.54
2016-11-25T01:00:52.221Z,96.83
2016-11-25T01:02:00.944Z,96.64
2016-11-25T01:03:09.634Z,96.92
2016-11-25T01:04:18.328Z,97.39
2016-11-25T01:05:27.021Z,97.2
2016-11-25T01:06:35.713Z,96.16
2016-11-25T01:07:44.402Z,96.26
2016-11-25T01:08:53.093Z,96.45
2016-11-25T01:10:01.786Z,96.35
2016-11-25T01:11:10.481Z,96.16
2016-11-25T01:12:19.170Z,96.83
2016-11-25T01:13:27.866Z,97.11
2016-11-25T01:14:36.555Z,97.39
2016-11-25T01:15:45.251Z,97.01
2016-11-25T01:16:53.945Z,96.73
2016-11-25T01:18:02.647Z,96.73
2016-11-25T01:19:11.338Z,97.01
2016-11-25T01:20:20.044Z,97.11
2016-11-25T01:21:28.738Z,97.11
2016-11-25T01:22:37.435Z,96.73
2016-11-25T01:23:46.122Z,97.01
2016-11-25T01:24:54.815Z,97.39
2016-11-25T01:26:03.505Z,97.11
2016-11-25T01:27:12.199Z,97.11
2016-11-25T01:28:21.221Z,97.67
2016-11-25T01:29:29.911Z,97.3
2016-11-25T01:30:38.599Z,97.67
2016-11-25T01:31:47.293Z,98.05
2016-11-25T01:32:55.991Z,97.39
2016-11-25T01:34:04.723Z,97.11
2016-11-25T01:35:13.421Z,97.3
2016-11-25T01:36:22.122Z,97.01
2016-11-25T01:37:30.814Z,96.92
2016-11-25T01:38:39.505Z,96.83
2016-11-25T01:39:48.196Z,97.11
2016-11-25T01:40:56.887Z,97.2
2016-11-25T01:42:05.580Z,97.49
2016-11-25T01:43:14.277Z,97.58
2016-11-25T01:44:22.999Z,97.58
2016-11-25T01:45:31.688Z,97.67
2016-11-25T01:46:40.382Z,96.92
2016-11-25T01:47:49.071Z,96.83
2016-11-25T01:48:57.760Z,96.92
2016-11-25T01:50:06.766Z,97.01
2016-11-25T01:51:15.459Z,96.45
2016-11-25T01:52:24.155Z,96.54
2016-11-25T01:53:32.845Z,97.01
2016-11-25T01:54:41.534Z,96.92
2016-11-25T01:55:50.220Z,97.11
2016-11-25T01:56:58.915Z,97.11
2016-11-25T01:58:07.922Z,96.54
2016-11-25T01:59:16.617Z,97.2
2016-11-25T02:00:25.308Z,97.2
2016-11-25T02:01:34.000Z,97.49
2016-11-25T02:02:42.688Z,97.01
2016-11-25T02:03:51.379Z,97.3
2016-11-25T02:05:00.073Z,97.49
2016-11-25T02:06:08.769Z,97.39
2016-11-25T02:07:17.459Z,97.11
2016-11-25T02:08:26.149Z,97.58
2016-11-25T02:09:34.841Z,97.67
2016-11-25T02:10:43.532Z,97.39
2016-11-25T02:11:52.233Z,98.14
2016-11-25T02:13:00.925Z,97.96
2016-11-25T02:14:09.616Z,97.58
2016-11-25T02:15:18.309Z,97.67
2016-11-25T02:16:26.996Z,97.39
2016-11-25T02:17:35.684Z,97.49
2016-11-25T02:18:44.374Z,97.3
2016-11-25T02:19:53.108Z,96.73
2016-11-25T02:21:01.804Z,97.58
2016-11-25T02:22:10.502Z,97.3
2016-11-25T02:23:19.193Z,96.83
2016-11-25T02:24:27.889Z,96.83
2016-11-25T02:25:36.579Z,97.39
2016-11-25T02:26:45.269Z,97.11
2016-11-25T02:27:53.988Z,96.64
2016-11-25T02:29:02.683Z,97.01
2016-11-25T02:30:11.374Z,96.64
2016-11-25T02:31:20.061Z,96.83
2016-11-25T02:32:28.754Z,96.54
2016-11-25T02:33:37.774Z,96.54
2016-11-25T02:34:46.460Z,96.83
2016-11-25T02:35:55.153Z,96.35
2016-11-25T02:37:03.845Z,96.83
2016-11-25T02:38:12.531Z,97.2
2016-11-25T02:39:21.223Z,96.35
2016-11-25T02:40:29.915Z,96.45
2016-11-25T02:41:38.634Z,97.11
2016-11-25T02:42:47.642Z,97.11
2016-11-25T02:43:56.332Z,97.11
2016-11-25T02:45:05.025Z,96.83
2016-11-25T02:46:13.719Z,96.64
2016-11-25T02:47:22.434Z,96.45
2016-11-25T02:48:31.123Z,96.64
2016-11-25T02:49:39.819Z,96.92
2016-11-25T02:50:48.511Z,97.01
2016-11-25T02:51:57.214Z,97.11
2016-11-25T02:53:05.908Z,97.11
2016-11-25T02:54:14.593Z,96.92
2016-11-25T02:55:23.283Z,97.3
2016-11-25T02:56:31.979Z,97.49
2016-11-25T02:57:40.673Z,97.39
2016-11-25T02:58:49.365Z,97.58
2016-11-25T02:59:58.059Z,97.2
2016-11-25T03:01:06.751Z,97.39
2016-11-25T03:02:15.446Z,97.2
2016-11-25T03:03:24.168Z,97.67
2016-11-25T03:04:32.860Z,97.2
2016-11-25T03:05:41.547Z,97.01
2016-11-25T03:06:50.239Z,97.49
2016-11-25T03:07:58.931Z,97.3
2016-11-25T03:09:07.627Z,96.92
2016-11-25T03:10:16.322Z,97.2
2016-11-25T03:11:25.017Z,97.49
2016-11-25T03:12:33.709Z,97.39
2016-11-25T03:13:42.407Z,97.67
2016-11-25T03:14:51.099Z,97.3
2016-11-25T03:15:59.792Z,97.77
2016-11-25T03:17:08.486Z,97.96
2016-11-25T03:18:17.176Z,97.96
2016-11-25T03:19:25.870Z,97.96
2016-11-25T03:20:34.561Z,98.62
2016-11-25T03:21:43.251Z,98.62
2016-11-25T03:22:51.946Z,98.62
2016-11-25T03:24:00.639Z,99.09
2016-11-25T03:25:09.326Z,99.09
2016-11-25T03:26:18.014Z,99
2016-11-25T03:27:26.733Z,99
2016-11-25T03:28:35.424Z,99.38
2016-11-25T03:29:44.112Z,99.09
2016-11-25T03:30:52.801Z,99.47
2016-11-25T03:32:01.498Z,99.14
2016-11-25T03:33:10.187Z,99.52
2016-11-25T03:34:18.877Z,99.38
2016-11-25T03:35:27.581Z,99.57
2016-11-25T03:36:36.279Z,99.38
2016-11-25T03:37:44.978Z,99.14
2016-11-25T03:38:53.671Z,99.19
2016-11-25T03:40:02.365Z,99.28
2016-11-25T03:41:11.057Z,99.09
2016-11-25T03:42:19.754Z,99.66
2016-11-25T03:43:28.447Z,99.28
2016-11-25T03:44:37.140Z,99.66
2016-11-25T03:45:45.830Z,98.81
2016-11-25T03:46:54.527Z,99.95
2016-11-25T03:48:03.222Z,99.95
2016-11-25T03:49:11.915Z,99.42
2016-11-25T03:50:20.608Z,99.95
2016-11-25T03:51:29.298Z,99.76
2016-11-25T03:52:37.990Z,99.28
2016-11-25T03:53:46.684Z,99.95
2016-11-25T03:54:55.379Z,99.99
2016-11-25T03:56:04.069Z,99.99
2016-11-25T03:57:12.758Z,99.99
2016-11-25T03:58:21.449Z,99.71
2016-11-25T03:59:30.146Z,99.99
2016-11-25T04:00:38.891Z,99.99
2016-11-25T04:01:47.587Z,99.85
2016-11-25T04:02:56.589Z,99.99
2016-11-25T04:04:05.277Z,99.99
2016-11-25T04:05:13.975Z,99.99
2016-11-25T04:06:22.669Z,99.99
2016-11-25T04:07:31.360Z,99.99
2016-11-25T04:08:40.055Z,99.99
2016-11-25T04:09:48.757Z,99.99
2016-11-25T04:10:57.448Z,99.99
2016-11-25T04:12:06.139Z,99.99
2016-11-25T04:13:14.839Z,99.99
2016-11-25T04:14:23.527Z,99.99
2016-11-25T04:15:32.220Z,99.99
2016-11-25T04:16:40.915Z,99.99
2016-11-25T04:17:49.607Z,99.99
2016-11-25T04:18:58.308Z,99.99
2016-11-25T04:20:07.006Z,99.99
2016-11-25T04:21:15.695Z,99.99
2016-11-25T04:22:24.387Z,99.99
2016-11-25T04:23:33.078Z,99.99
2016-11-25T04:24:41.800Z,99.99
2016-11-25T04:25:50.489Z,99.99
2016-11-25T04:26:59.183Z,99.99
2016-11-25T04:28:07.872Z,99.99
2016-11-25T04:29:16.590Z,99.99
2016-11-25T04:30:25.287Z,99.99
2016-11-25T04:31:33.980Z,99.99
2016-11-25T04:32:42.672Z,99.99
2016-11-25T04:33:51.367Z,99.99
2016-11-25T04:35:00.058Z,99.99
2016-11-25T04:36:08.750Z,99.99
2016-11-25T04:37:17.436Z,99.99
2016-11-25T04:38:26.127Z,99.99
2016-11-25T04:39:34.819Z,99.99
2016-11-25T04:40:43.504Z,99.99
2016-11-25T04:41:52.199Z,99.99
2016-11-25T04:43:00.888Z,99.99
2016-11-25T04:44:09.582Z,99.99
2016-11-25T04:45:18.275Z,99.99
2016-11-25T04:46:26.994Z,99.38
2016-11-25T04:47:35.722Z,99
2016-11-25T04:48:44.416Z,98.71
2016-11-25T04:49:53.120Z,99.57
2016-11-25T04:51:01.816Z,99.66
2016-11-25T04:52:10.513Z,99.28
2016-11-25T04:53:19.225Z,99.57
2016-11-25T04:54:27.912Z,99.85
2016-11-25T04:55:36.605Z,99.57
2016-11-25T04:56:45.326Z,99.38
2016-11-25T04:57:54.018Z,99.57
2016-11-25T04:59:02.714Z,99.38
2016-11-25T05:00:11.401Z,99.66
2016-11-25T05:01:20.093Z,98.81
2016-11-25T05:02:28.782Z,99.47
2016-11-25T05:03:37.477Z,99.28
2016-11-25T05:04:46.176Z,99.38
2016-11-25T05:05:54.871Z,99.19
2016-11-25T05:07:03.568Z,98.9
2016-11-25T05:08:12.258Z,99.09
2016-11-25T05:09:20.952Z,98.81
2016-11-25T05:10:29.652Z,98.71
2016-11-25T05:11:38.371Z,98.9
2016-11-25T05:12:47.094Z,99.57
2016-11-25T05:13:55.792Z,99.38
2016-11-25T05:15:04.495Z,99.57
2016-11-25T05:16:13.186Z,99.57
2016-11-25T05:17:21.882Z,99.57
2016-11-25T05:18:30.574Z,99.76
2016-11-25T05:19:39.265Z,99.99
2016-11-25T05:20:47.993Z,99.57
2016-11-25T05:21:56.715Z,99.66
2016-11-25T05:23:05.410Z,99.99
2016-11-25T05:24:14.102Z,99.99
2016-11-25T05:25:22.794Z,99.99
2016-11-25T05:26:31.498Z,99.99
2016-11-25T05:27:40.191Z,99.76
2016-11-25T05:28:48.925Z,99.99
2016-11-25T05:29:57.615Z,99.99
2016-11-25T05:31:06.305Z,99.99
2016-11-25T05:32:15.007Z,99.76
2016-11-25T05:33:24.018Z,99.99
2016-11-25T05:34:32.710Z,99.99
2016-11-25T05:35:41.440Z,99.99
2016-11-25T05:36:50.133Z,99.99
2016-11-25T05:37:58.820Z,99.99
2016-11-25T05:39:07.543Z,99.99
2016-11-25T05:40:16.240Z,99.99
2016-11-25T05:41:24.930Z,99.99
2016-11-25T05:42:33.630Z,99.99
2016-11-25T05:43:42.636Z,99.66
2016-11-25T05:44:51.334Z,99.99
2016-11-25T05:46:00.021Z,99.99
2016-11-25T05:47:08.712Z,99.99
2016-11-25T05:48:17.405Z,99.99
2016-11-25T05:49:26.093Z,99.99
2016-11-25T05:50:34.787Z,99.99
2016-11-25T05:51:43.489Z,99.99
2016-11-25T05:52:52.180Z,99.99
2016-11-25T05:54:00.874Z,99.99
2016-11-25T05:55:09.562Z,99.99
2016-11-25T05:56:18.254Z,99.99
2016-11-25T05:57:26.948Z,99.99
2016-11-25T05:58:35.639Z,99.99
2016-11-25T05:59:44.333Z,99.99
2016-11-25T06:00:53.124Z,99.99
2016-11-25T06:02:01.827Z,99.99
2016-11-25T06:03:10.516Z,99.99
2016-11-25T06:04:19.212Z,99.99
2016-11-25T06:05:27.898Z,99.99
2016-11-25T06:06:36.600Z,99.99
2016-11-25T06:07:45.323Z,99.99
2016-11-25T06:08:54.014Z,99.99
2016-11-25T06:10:02.706Z,99.99
2016-11-25T06:11:11.403Z,99.99
2016-11-25T06:12:20.099Z,99.99
2016-11-25T06:13:28.789Z,99.99
2016-11-25T06:14:37.487Z,99.99
2016-11-25T06:15:46.179Z,99.99
2016-11-25T06:16:54.870Z,99.99
2016-11-25T06:18:03.562Z,99.99
2016-11-25T06:19:12.253Z,99.99
2016-11-25T06:20:20.951Z,99.99
2016-11-25T06:21:29.638Z,99.99
2016-11-25T06:22:38.337Z,99.99
2016-11-25T06:23:47.031Z,99.99
2016-11-25T06:24:55.727Z,99.99
2016-11-25T06:26:04.426Z,99.99
2016-11-25T06:27:13.117Z,99.99
2016-11-25T06:28:21.819Z,99.99
2016-11-25T06:29:30.511Z,99.99
2016-11-25T06:30:39.203Z,99.99
2016-11-25T06:31:47.899Z,99.99
2016-11-25T06:32:56.910Z,99.99
2016-11-25T06:34:05.598Z,99.99
2016-11-25T06:35:14.310Z,99.99
2016-11-25T06:36:23.004Z,99.99
2016-11-25T06:37:31.695Z,99.99
2016-11-25T06:38:40.391Z,99.99
2016-11-25T06:39:49.096Z,99.99
2016-11-25T06:40:57.788Z,99.99
2016-11-25T06:42:06.480Z,99.99
2016-11-25T06:43:15.203Z,99.99
2016-11-25T06:44:23.893Z,99.99
2016-11-25T06:45:32.588Z,99.99
2016-11-25T06:46:41.280Z,99.99
2016-11-25T06:47:49.976Z,99.99
2016-11-25T06:48:58.706Z,99.99
2016-11-25T06:50:07.399Z,99.99
2016-11-25T06:51:16.111Z,99.99
2016-11-25T06:52:24.833Z,99.99
2016-11-25T06:53:33.520Z,99.99
2016-11-25T06:54:42.213Z,99.99
2016-11-25T06:55:50.911Z,99.99
2016-11-25T06:56:59.603Z,99.99
2016-11-25T06:58:08.330Z,99.99
2016-11-25T06:59:17.020Z,99.99
2016-11-25T07:00:25.715Z,99.99
2016-11-25T07:01:34.408Z,99.99
2016-11-25T07:02:43.101Z,99.99
2016-11-25T07:03:51.820Z,99.99
2016-11-25T07:05:00.510Z,99.99
2016-11-25T07:06:09.205Z,99.99
2016-11-25T07:07:17.898Z,99.99
2016-11-25T07:08:26.593Z,99.99
2016-11-25T07:09:35.290Z,99.99
2016-11-25T07:10:43.988Z,99.99
2016-11-25T07:11:52.684Z,99.99
2016-11-25T07:13:01.374Z,99.99
2016-11-25T07:14:10.068Z,99.99
2016-11-25T07:15:18.763Z,99.99
2016-11-25T07:16:27.455Z,99.99
2016-11-25T07:17:36.143Z,99.99
2016-11-25T07:18:44.834Z,99.99
2016-11-25T07:19:53.531Z,99.99
2016-11-25T07:21:02.220Z,99.99
2016-11-25T07:22:10.921Z,99.99
2016-11-25T07:23:19.613Z,99.99
2016-11-25T07:24:28.310Z,99.99
2016-11-25T07:25:37.001Z,99.99
2016-11-25T07:26:45.697Z,99.99
2016-11-25T07:27:54.390Z,99.99
2016-11-25T07:29:03.080Z,99.99
2016-11-25T07:30:11.773Z,99.99
2016-11-25T07:31:20.462Z,99.99
2016-11-25T07:32:29.158Z,99.99
2016-11-25T07:33:37.853Z,99.99
2016-11-25T07:34:46.581Z,99.99
2016-11-25T07:35:55.275Z,99.99
2016-11-25T07:37:03.969Z,99.99
2016-11-25T07:38:12.664Z,99.99
2016-11-25T07:39:21.353Z,99.99
2016-11-25T07:40:30.044Z,99.99
2016-11-25T07:41:38.742Z,99.99
2016-11-25T07:42:47.441Z,99.99
2016-11-25T07:43:56.135Z,99.99
2016-11-25T07:45:04.828Z,99.99
2016-11-25T07:46:13.524Z,99.99
2016-11-25T07:47:22.221Z,99.99
2016-11-25T07:48:30.907Z,99.99
2016-11-25T07:49:39.603Z,99.99
2016-11-25T07:50:48.314Z,99.99
2016-11-25T07:51:57.002Z,99.99
2016-11-25T07:53:05.726Z,99.99
2016-11-25T07:54:14.419Z,99.99
2016-11-25T07:55:23.461Z,99.99
2016-11-25T07:56:32.181Z,99.99
2016-11-25T07:57:40.873Z,99.99
2016-11-25T07:58:49.565Z,99.99
2016-11-25T07:59:58.260Z,99.99
2016-11-25T08:01:06.961Z,99.99
2016-11-25T08:02:15.655Z,99.99
2016-11-25T08:03:24.347Z,99.99
2016-11-25T08:04:33.042Z,99.99
2016-11-25T08:05:41.731Z,99.99
2016-11-25T08:06:50.422Z,99.99
2016-11-25T08:07:59.119Z,99.99
2016-11-25T08:09:08.126Z,99.99
2016-11-25T08:10:16.815Z,99.99
2016-11-25T08:11:25.508Z,99.99
2016-11-25T08:12:34.209Z,99.99
2016-11-25T08:13:42.905Z,99.99
2016-11-25T08:14:51.597Z,99.99
2016-11-25T08:16:00.286Z,99.99
2016-11-25T08:17:08.985Z,99.99
2016-11-25T08:18:17.678Z,99.99
2016-11-25T08:19:26.370Z,99.99
2016-11-25T08:20:35.062Z,99.99
2016-11-25T08:21:43.754Z,99.99
2016-11-25T08:22:52.453Z,99.99
2016-11-25T08:24:01.191Z,99.99
2016-11-25T08:25:09.888Z,99.99
2016-11-25T08:26:18.593Z,99.99
2016-11-25T08:27:27.285Z,99.99
2016-11-25T08:28:36.009Z,99.99
2016-11-25T08:29:44.699Z,99.99
2016-11-25T08:30:53.424Z,99.99
2016-11-25T08:32:02.116Z,99.99
2016-11-25T08:33:10.803Z,99.99
2016-11-25T08:34:19.513Z,99.99
2016-11-25T08:35:28.206Z,99.99
2016-11-25T08:36:37.219Z,99.99
2016-11-25T08:37:45.910Z,99.99
2016-11-25T08:38:54.598Z,99.99
2016-11-25T08:40:03.302Z,99.99
2016-11-25T08:41:11.998Z,99.99
2016-11-25T08:42:20.690Z,99.99
2016-11-25T08:43:29.382Z,99.99
2016-11-25T08:44:38.069Z,99.99
2016-11-25T08:45:46.772Z,99.99
2016-11-25T08:46:55.469Z,99.99
2016-11-25T08:48:04.167Z,99.99
2016-11-25T08:49:12.857Z,99.99
2016-11-25T08:50:21.860Z,99.99
2016-11-25T08:51:30.558Z,99.99
2016-11-25T08:52:39.251Z,99.99
2016-11-25T08:53:47.949Z,99.99
2016-11-25T08:54:56.643Z,99.99
2016-11-25T08:56:05.331Z,99.99
2016-11-25T08:57:40.288Z,99.99
2016-11-25T08:58:48.986Z,99.99
2016-11-25T08:59:57.997Z,99.99
2016-11-25T09:01:06.711Z,99.99
2016-11-25T09:02:15.402Z,99.99
2016-11-25T09:04:44.458Z,99.99
2016-11-25T09:05:53.158Z,99.99
2016-11-25T09:07:01.857Z,99.99
2016-11-25T09:08:10.551Z,99.99
2016-11-25T09:09:19.396Z,99.99
2016-11-25T09:10:28.089Z,99.99
2016-11-25T09:11:36.778Z,99.99
2016-11-25T09:12:45.467Z,99.99
2016-11-25T09:13:54.165Z,99.99
2016-11-25T09:15:02.860Z,99.99
2016-11-25T09:16:11.555Z,99.99
2016-11-25T09:17:20.242Z,99.99
2016-11-25T09:18:28.930Z,99.99
2016-11-25T09:19:37.626Z,99.99
2016-11-25T09:20:46.316Z,99.99
2016-11-25T09:21:55.336Z,99.99
2016-11-25T09:23:04.028Z,99.99
2016-11-25T09:24:13.044Z,99.99
2016-11-25T09:25:21.734Z,99.99
2016-11-25T09:26:30.452Z,99.99
2016-11-25T09:27:39.146Z,99.99
2016-11-25T09:28:47.852Z,99.99
2016-11-25T09:29:56.549Z,99.99
2016-11-25T09:31:05.553Z,99.99
2016-11-25T09:32:14.261Z,99.99
2016-11-25T09:33:22.953Z,99.99
2016-11-25T09:34:31.650Z,99.99
2016-11-25T09:35:40.342Z,99.99
2016-11-25T09:36:49.033Z,99.99
2016-11-25T09:37:57.721Z,99.99
2016-11-25T09:39:06.423Z,99.99
2016-11-25T09:40:15.112Z,99.99
2016-11-25T09:41:23.803Z,99.99
2016-11-25T09:42:32.494Z,99.99
2016-11-25T09:43:41.197Z,99.99
2016-11-25T09:44:49.887Z,99.99
2016-11-25T09:45:58.579Z,99.99
2016-11-25T09:47:07.275Z,99.99
2016-11-25T09:48:15.970Z,99.99
2016-11-25T09:49:24.668Z,99.99
2016-11-25T09:50:33.361Z,99.99
2016-11-25T09:51:42.053Z,99.99
2016-11-25T09:52:50.750Z,99.99
2016-11-25T09:53:59.438Z,99.99
2016-11-25T09:55:08.132Z,99.99
2016-11-25T09:56:16.826Z,99.99
2016-11-25T09:57:25.515Z,99.99
2016-11-25T09:58:34.206Z,99.99
2016-11-25T09:59:42.907Z,99.99
2016-11-25T10:00:51.602Z,99.99
2016-11-25T10:02:00.334Z,99.99
2016-11-25T10:03:09.026Z,99.99
2016-11-25T10:04:17.718Z,99.99
2016-11-25T10:05:26.406Z,99.99
2016-11-25T10:06:35.098Z,99.99
2016-11-25T10:07:43.793Z,99.99
2016-11-25T10:08:52.497Z,99.99
2016-11-25T10:10:01.184Z,99.99
2016-11-25T10:11:09.880Z,99.99
2016-11-25T10:12:18.570Z,99.99
2016-11-25T10:13:27.260Z,99.99
2016-11-25T10:14:35.952Z,99.99
2016-11-25T10:15:44.645Z,99.99
2016-11-25T10:16:53.337Z,99.99
2016-11-25T10:18:02.029Z,99.24
2016-11-25T10:19:10.727Z,99.99
2016-11-25T10:20:19.420Z,98.58
2016-11-25T10:21:28.107Z,99.99
2016-11-25T10:22:36.798Z,99.9
2016-11-25T10:23:45.492Z,99.99
2016-11-25T10:24:54.186Z,99.99
2016-11-25T10:26:02.886Z,99.99
2016-11-25T10:27:11.589Z,99.99
2016-11-25T10:28:20.279Z,99.99
2016-11-25T10:29:28.969Z,99.43
2016-11-25T10:30:37.660Z,99.43
2016-11-25T10:31:46.357Z,99.52
2016-11-25T10:32:55.053Z,99.8
2016-11-25T10:34:03.749Z,99.71
2016-11-25T10:35:12.755Z,99.99
2016-11-25T10:36:21.449Z,99.99
2016-11-25T10:37:30.139Z,99.99
2016-11-25T10:38:38.841Z,99.99
2016-11-25T10:39:47.536Z,99.99
2016-11-25T10:40:56.230Z,99.99
2016-11-25T10:42:04.926Z,99.99
2016-11-25T10:43:13.626Z,99.99
2016-11-25T10:44:22.323Z,99.99
2016-11-25T10:45:31.015Z,99.99
2016-11-25T10:46:39.714Z,99.99
2016-11-25T10:47:48.412Z,99.99
2016-11-25T10:48:57.102Z,99.99
2016-11-25T10:50:05.800Z,99.99
2016-11-25T10:51:14.492Z,99.99
2016-11-25T10:52:23.180Z,99.99
2016-11-25T10:53:31.875Z,99.99
2016-11-25T10:54:40.575Z,99.85
2016-11-25T10:55:49.585Z,99.48
2016-11-25T10:56:58.303Z,98.72
2016-11-25T10:58:06.996Z,97.87
2016-11-25T10:59:15.692Z,98.25
2016-11-25T11:00:24.716Z,97.96
2016-11-25T11:01:33.442Z,98.53
2016-11-25T11:02:42.133Z,99.33
2016-11-25T11:03:50.825Z,99.43
2016-11-25T11:04:59.530Z,99.62
2016-11-25T11:06:08.225Z,99.15
2016-11-25T11:07:16.914Z,99.99
2016-11-25T11:08:25.609Z,99.99
2016-11-25T11:09:34.305Z,99.99
2016-11-25T11:10:42.995Z,99.66
2016-11-25T11:11:51.688Z,99.52
2016-11-25T11:13:00.384Z,99.66
2016-11-25T11:14:09.395Z,99.8
2016-11-25T11:15:18.089Z,99.57
2016-11-25T11:16:26.786Z,99.66
2016-11-25T11:17:35.487Z,99.76
2016-11-25T11:18:44.180Z,99.66
2016-11-25T11:19:52.871Z,99.48
2016-11-25T11:21:01.565Z,99.62
2016-11-25T11:22:10.259Z,99.66
2016-11-25T11:23:18.961Z,99.66
2016-11-25T11:24:27.653Z,99.76
2016-11-25T11:25:36.352Z,98.82
2016-11-25T11:26:45.046Z,98.72
2016-11-25T11:27:53.736Z,98.72
2016-11-25T11:29:02.749Z,98.63
2016-11-25T11:30:11.440Z,98.34
2016-11-25T11:31:20.137Z,97.49
2016-11-25T11:32:28.841Z,96.92
2016-11-25T11:33:37.845Z,96.45
2016-11-25T11:34:46.873Z,96.54
2016-11-25T11:35:55.879Z,96.83
2016-11-25T11:37:04.576Z,96.83
2016-11-25T11:38:13.269Z,95.21
2016-11-25T11:39:21.968Z,94.74
2016-11-25T11:40:30.711Z,95.12
2016-11-25T11:41:39.409Z,94.93
2016-11-25T11:42:48.104Z,95.21
2016-11-25T11:43:56.796Z,95.12
2016-11-25T11:45:05.491Z,94.98
2016-11-25T11:46:14.187Z,95.17
2016-11-25T11:47:22.879Z,95.45
2016-11-25T11:48:31.568Z,94.6
2016-11-25T11:49:40.266Z,94.13
2016-11-25T11:50:48.963Z,94.04
2016-11-25T11:51:57.655Z,94.18
2016-11-25T11:53:06.352Z,94.74
2016-11-25T11:54:15.048Z,94.84
2016-11-25T11:55:23.741Z,94.46
2016-11-25T11:56:32.439Z,94.37
2016-11-25T11:57:41.130Z,94.65
2016-11-25T11:58:49.858Z,94.65
2016-11-25T11:59:58.560Z,94.65
2016-11-25T12:01:07.255Z,94.65
2016-11-25T12:02:15.951Z,95.17
2016-11-25T12:03:24.645Z,95.17
2016-11-25T12:04:33.338Z,94.32
2016-11-25T12:05:42.034Z,94.32
2016-11-25T12:06:50.731Z,94.89
2016-11-25T12:07:59.460Z,94.04
2016-11-25T12:09:08.156Z,94.42
2016-11-25T12:10:16.851Z,94.13
2016-11-25T12:11:25.542Z,93.75
2016-11-25T12:12:34.239Z,92.66
2016-11-25T12:13:42.932Z,92.28
2016-11-25T12:14:51.625Z,90.77
2016-11-25T12:16:00.353Z,90.48
2016-11-25T12:17:09.046Z,90.48
2016-11-25T12:18:17.741Z,91.38
2016-11-25T12:19:26.467Z,92.61
2016-11-25T12:20:35.163Z,93.46
2016-11-25T12:21:43.853Z,94.04
2016-11-25T12:22:52.558Z,93.7
2016-11-25T12:24:01.250Z,93.13
2016-11-25T12:25:09.951Z,92.47
2016-11-25T12:26:18.643Z,92
2016-11-25T12:27:27.334Z,92.28
2016-11-25T12:28:36.063Z,92.19
2016-11-25T12:29:44.865Z,92.57
2016-11-25T12:30:53.557Z,92.09
2016-11-25T12:32:02.281Z,92.76
2016-11-25T12:33:10.972Z,93.04
2016-11-25T12:34:19.991Z,93.42
2016-11-25T12:35:28.736Z,93.23
2016-11-25T12:36:37.429Z,93.23
2016-11-25T12:37:46.130Z,93.13
2016-11-25T12:38:54.823Z,92.76
2016-11-25T12:40:03.518Z,92
2016-11-25T12:41:12.208Z,91.66
2016-11-25T12:42:20.903Z,91.38
2016-11-25T12:43:29.596Z,91.19
2016-11-25T12:44:38.295Z,91.28
2016-11-25T12:45:46.983Z,91.38
2016-11-25T12:46:55.679Z,91.38
2016-11-25T12:48:04.372Z,91.85
2016-11-25T12:49:13.069Z,91.19
2016-11-25T12:50:21.770Z,89.01
2016-11-25T12:51:30.460Z,89.15
2016-11-25T12:52:39.148Z,90.77
2016-11-25T12:53:47.848Z,91.67
2016-11-25T12:54:56.541Z,92.8
2016-11-25T12:56:05.551Z,92.8
2016-11-25T12:57:14.246Z,94.04
2016-11-25T12:58:22.941Z,95.45
2016-11-25T12:59:31.637Z,96.5
2016-11-25T13:00:40.332Z,97.35
2016-11-25T13:01:49.024Z,96.69
2016-11-25T13:02:57.720Z,95.41
2016-11-25T13:04:06.410Z,94.93
2016-11-25T13:05:15.113Z,93.08
2016-11-25T13:06:23.801Z,91.95
2016-11-25T13:07:32.494Z,91.85
2016-11-25T13:08:41.189Z,91
2016-11-25T13:09:49.891Z,90.57
2016-11-25T13:10:58.589Z,89.81
2016-11-25T13:12:07.292Z,89.53
2016-11-25T13:13:16.018Z,88.96
2016-11-25T13:14:24.715Z,88.68
2016-11-25T13:15:33.414Z,88.2
2016-11-25T13:16:42.105Z,88.48
2016-11-25T13:17:50.839Z,87.77
2016-11-25T13:18:59.533Z,87.87
2016-11-25T13:20:08.229Z,87.39
2016-11-25T13:21:16.926Z,87.11
2016-11-25T13:22:25.621Z,87.11
2016-11-25T13:23:34.316Z,87.39
2016-11-25T13:24:43.009Z,87.49
2016-11-25T13:25:51.708Z,87.39
2016-11-25T13:27:00.401Z,86.63
2016-11-25T13:28:09.121Z,86.63
2016-11-25T13:29:17.812Z,86.63
2016-11-25T13:30:26.514Z,86.07
2016-11-25T13:31:35.209Z,86.07
2016-11-25T13:32:43.906Z,86.16
2016-11-25T13:33:52.628Z,86.35
2016-11-25T13:35:01.318Z,85.87
2016-11-25T13:36:10.015Z,85.68
2016-11-25T13:37:18.714Z,85.59
2016-11-25T13:38:27.411Z,85.4
2016-11-25T13:39:36.109Z,85.49
2016-11-25T13:40:44.809Z,85.49
2016-11-25T13:41:53.504Z,85.78
2016-11-25T13:43:02.206Z,85.68
2016-11-25T13:44:10.893Z,85.59
2016-11-25T13:45:19.599Z,85.78
2016-11-25T13:46:28.291Z,85.78
2016-11-25T13:47:36.985Z,85.4
2016-11-25T13:48:45.680Z,85.87
2016-11-25T13:49:54.375Z,85.78
2016-11-25T13:51:03.392Z,85.02
2016-11-25T13:52:12.092Z,84.83
2016-11-25T13:53:20.793Z,85.06
2016-11-25T13:54:29.515Z,84.83
2016-11-25T13:55:38.213Z,84.49
2016-11-25T13:56:46.909Z,85.11
2016-11-25T13:57:55.610Z,85.4
2016-11-25T13:59:04.321Z,85.4
2016-11-25T14:00:13.014Z,85.87
2016-11-25T14:01:21.747Z,85.49
2016-11-25T14:02:30.443Z,85.68
2016-11-25T14:03:39.449Z,85.68
2016-11-25T14:04:48.154Z,85.78
2016-11-25T14:05:57.172Z,85.78
2016-11-25T14:07:05.865Z,85.49
2016-11-25T14:08:14.563Z,85.68
2016-11-25T14:09:23.260Z,85.11
2016-11-25T14:10:31.954Z,84.87
2016-11-25T14:11:40.644Z,84.97
2016-11-25T14:12:49.345Z,84.59
2016-11-25T14:13:58.041Z,84.11
2016-11-25T14:15:06.748Z,83.73
2016-11-25T14:16:15.440Z,84.21
2016-11-25T14:17:24.138Z,84.01
2016-11-25T14:18:32.837Z,84.21
2016-11-25T14:19:41.848Z,83.45
2016-11-25T14:20:50.581Z,83.36
2016-11-25T14:21:59.278Z,83.36
2016-11-25T14:23:08.294Z,83.54
2016-11-25T14:24:16.991Z,83.36
2016-11-25T14:25:25.695Z,83.54
2016-11-25T14:26:34.404Z,83.45
2016-11-25T14:27:43.093Z,83.54
2016-11-25T14:28:51.791Z,84.01
2016-11-25T14:30:00.805Z,84.01
2016-11-25T14:31:09.498Z,84.01
2016-11-25T14:32:18.218Z,83.83
2016-11-25T14:33:26.910Z,83.45
2016-11-25T14:34:35.600Z,83.45
2016-11-25T14:35:44.299Z,83.36
2016-11-25T14:36:52.990Z,83.36
2016-11-25T14:38:01.687Z,83.45
2016-11-25T14:39:10.703Z,82.69
2016-11-25T14:40:19.397Z,83.07
2016-11-25T14:41:28.104Z,82.4
2016-11-25T14:42:36.808Z,82.31
2016-11-25T14:43:45.501Z,82.21
2016-11-25T14:44:54.225Z,82.21
2016-11-25T14:46:02.916Z,82.5
2016-11-25T14:47:11.643Z,82.97
2016-11-25T14:48:20.340Z,82.88